Time;durP1;ratioP1;P1;durP2;ratioP2;P2;SDS_P1;SDS_P2;PMS_P1;PMS_P2;Temp;Humidity;BMP_temperature;BMP_pressure;BME280_temperature;BME280_humidity;BME280_pressure;Samples;Min_cycle;Max_cycle;Signal;HPM_P1;HPM_P2
2024/03/25 00:02:02;;;;;;;21.02;3.92;;;;;;;3.65;100.00;68788.03;5091475;28;20051;-50
2024/03/25 00:04:29;;;;;;;23.70;3.95;;;;;;;3.65;100.00;68788.63;5091240;28;20048;-48
2024/03/25 00:06:56;;;;;;;16.58;3.70;;;;;;;3.60;100.00;68787.41;5086563;28;20511;-50
2024/03/25 00:09:24;;;;;;;14.93;3.80;;;;;;;3.55;100.00;68782.75;5088912;28;20116;-48
2024/03/25 00:11:53;;;;;;;14.73;2.90;;;;;;;3.55;100.00;68779.59;5072713;28;20044;-49
2024/03/25 00:14:21;;;;;;;15.32;3.35;;;;;;;3.51;100.00;68778.13;5088619;28;20047;-47
2024/03/25 00:16:47;;;;;;;16.08;3.58;;;;;;;3.47;100.00;68770.91;5088289;28;20036;-49
2024/03/25 00:19:17;;;;;;;15.52;3.60;;;;;;;3.48;100.00;68772.06;5090890;28;20040;-50
2024/03/25 00:21:44;;;;;;;14.70;3.22;;;;;;;3.45;100.00;68773.75;5090106;28;20123;-49
2024/03/25 00:24:11;;;;;;;18.08;4.07;;;;;;;3.40;100.00;68760.19;5086742;28;20047;-48
2024/03/25 00:26:38;;;;;;;22.13;3.65;;;;;;;3.37;100.00;68759.31;5090055;28;20475;-48
2024/03/25 00:29:05;;;;;;;15.70;3.22;;;;;;;3.36;100.00;68760.72;5091085;28;20585;-47
2024/03/25 00:31:32;;;;;;;16.40;2.88;;;;;;;3.36;100.00;68758.13;5088454;28;20044;-50
2024/03/25 00:33:58;;;;;;;17.83;3.60;;;;;;;3.32;100.00;68753.50;5087575;28;20044;-47
2024/03/25 00:36:26;;;;;;;16.92;3.42;;;;;;;3.31;100.00;68754.91;5087754;28;20054;-49
2024/03/25 00:38:53;;;;;;;18.52;3.45;;;;;;;3.28;100.00;68751.44;5086655;28;20035;-52
2024/03/25 00:41:20;;;;;;;15.32;2.97;;;;;;;3.22;100.00;68745.63;5087650;28;20403;-49
2024/03/25 00:43:46;;;;;;;18.58;2.50;;;;;;;3.22;100.00;68742.47;5087807;28;20415;-53
2024/03/25 00:46:13;;;;;;;16.13;2.80;;;;;;;3.18;100.00;68740.41;5086718;28;20040;-53
2024/03/25 00:48:41;;;;;;;15.18;3.35;;;;;;;3.16;100.00;68738.09;5070594;28;20067;-48
2024/03/25 00:51:11;;;;;;;15.13;2.83;;;;;;;3.13;100.00;68732.59;5088708;28;20052;-48
2024/03/25 00:53:39;;;;;;;15.35;2.90;;;;;;;3.15;100.00;68736.91;5086607;28;20040;-48
2024/03/25 00:56:06;;;;;;;15.27;2.88;;;;;;;3.14;100.00;68735.78;5089649;28;20491;-49
2024/03/25 00:58:33;;;;;;;17.90;2.92;;;;;;;3.13;100.00;68730.03;5088185;28;20503;-49
2024/03/25 01:01:00;;;;;;;13.07;3.28;;;;;;;3.10;100.00;68729.13;5070254;28;20060;-50
2024/03/25 01:03:26;;;;;;;11.07;2.53;;;;;;;3.11;100.00;68732.28;5087490;28;20518;-50
2024/03/25 01:05:53;;;;;;;11.88;2.40;;;;;;;3.08;100.00;68729.41;5088553;28;20052;-48
2024/03/25 01:08:19;;;;;;;22.85;3.03;;;;;;;3.03;100.00;68724.16;5090237;28;20380;-49
2024/03/25 01:10:48;;;;;;;11.75;2.90;;;;;;;2.99;100.00;68716.94;5073557;28;20533;-48
2024/03/25 01:13:14;;;;;;;15.52;2.72;;;;;;;2.98;100.00;68718.38;5090172;28;20052;-51
2024/03/25 01:15:42;;;;;;;15.98;3.70;;;;;;;2.98;100.00;68715.22;5087185;28;20044;-50
2024/03/25 01:18:08;;;;;;;9.50;2.45;;;;;;;2.95;100.00;68711.75;5086436;28;20044;-50
2024/03/25 01:20:35;;;;;;;20.25;2.97;;;;;;;2.92;100.00;68711.41;5088842;28;20040;-48
2024/03/25 01:23:04;;;;;;;15.63;2.72;;;;;;;2.91;100.00;68707.69;5089989;28;20044;-48
2024/03/25 01:25:32;;;;;;;22.48;3.60;;;;;;;2.92;100.00;68705.66;5073303;28;20059;-49
2024/03/25 01:27:59;;;;;;;15.00;3.40;;;;;;;2.90;100.00;68708.50;5090150;28;20039;-49
2024/03/25 01:30:27;;;;;;;16.27;2.80;;;;;;;2.86;100.00;68702.47;5089191;28;20040;-50
2024/03/25 01:32:53;;;;;;;19.02;3.22;;;;;;;2.83;100.00;68696.38;5086731;28;20088;-45
2024/03/25 01:35:20;;;;;;;14.10;3.30;;;;;;;2.82;100.00;68700.41;5086915;28;20051;-46
2024/03/25 01:37:46;;;;;;;22.08;4.82;;;;;;;2.79;100.00;68696.91;5085568;28;20048;-46
2024/03/25 01:40:14;;;;;;;18.98;3.45;;;;;;;2.79;100.00;68694.34;5086639;28;20047;-47
2024/03/25 01:42:41;;;;;;;15.27;2.85;;;;;;;2.78;100.00;68690.59;5087086;28;20086;-47
2024/03/25 01:45:12;;;;;;;18.60;3.85;;;;;;;2.76;100.00;68693.44;5086874;28;20040;-46
2024/03/25 01:47:39;;;;;;;14.68;3.03;;;;;;;2.73;100.00;68692.53;5087226;28;20044;-46
2024/03/25 01:50:08;;;;;;;19.15;3.80;;;;;;;2.71;100.00;68682.47;5086610;28;20068;-49
2024/03/25 01:52:37;;;;;;;19.27;3.42;;;;;;;2.69;100.00;68685.91;5086132;28;20052;-46
2024/03/25 01:55:05;;;;;;;22.17;4.05;;;;;;;2.69;100.00;68680.16;5086078;28;20612;-46
2024/03/25 01:57:31;;;;;;;20.48;4.25;;;;;;;2.69;100.00;68685.31;5087281;28;20044;-46
2024/03/25 01:59:58;;;;;;;22.85;4.55;;;;;;;2.67;100.00;68678.44;5089822;28;20392;-45
2024/03/25 02:02:26;;;;;;;22.17;4.05;;;;;;;2.64;100.00;68676.94;5088218;28;20490;-46
2024/03/25 02:04:53;;;;;;;22.02;4.05;;;;;;;2.64;100.00;68680.09;5086770;28;20093;-47
2024/03/25 02:07:21;;;;;;;20.08;3.75;;;;;;;2.65;100.00;68675.53;5085597;28;20039;-49
2024/03/25 02:09:49;;;;;;;19.70;3.47;;;;;;;2.63;100.00;68673.78;5089363;28;20052;-48
2024/03/25 02:12:16;;;;;;;19.08;3.75;;;;;;;2.61;100.00;68676.63;5086070;28;20055;-51
2024/03/25 02:14:43;;;;;;;15.60;3.30;;;;;;;2.59;100.00;68671.72;5086321;28;20055;-50
2024/03/25 02:17:09;;;;;;;23.90;4.10;;;;;;;2.61;100.00;68673.47;5086595;28;20065;-48
2024/03/25 02:19:40;;;;;;;21.45;3.65;;;;;;;2.61;100.00;68673.47;5087036;28;20039;-46
2024/03/25 02:22:06;;;;;;;17.77;3.55;;;;;;;2.59;100.00;68674.31;5088241;28;20040;-46
2024/03/25 02:24:35;;;;;;;28.10;4.30;;;;;;;2.58;100.00;68667.41;5086053;28;20087;-45
2024/03/25 02:27:07;;;;;;;18.33;3.80;;;;;;;2.59;100.00;68671.13;5086077;28;20048;-47
2024/03/25 02:29:35;;;;;;;18.17;3.30;;;;;;;2.58;100.00;68669.97;5087934;28;20090;-46
2024/03/25 02:32:01;;;;;;;19.92;3.97;;;;;;;2.58;100.00;68669.97;5092219;28;20133;-45
2024/03/25 02:34:29;;;;;;;21.50;3.70;;;;;;;2.57;100.00;68666.81;5093067;28;20055;-45
2024/03/25 02:36:56;;;;;;;19.38;3.63;;;;;;;2.57;100.00;68668.84;5088358;28;20052;-47
2024/03/25 02:39:24;;;;;;;17.90;4.60;;;;;;;2.54;100.00;68669.06;5089694;28;20036;-45
2024/03/25 02:41:50;;;;;;;24.63;4.50;;;;;;;2.56;100.00;68662.53;5089352;28;20047;-45
2024/03/25 02:44:19;;;;;;;18.55;4.18;;;;;;;2.54;100.00;68666.50;5089485;28;20044;-46
2024/03/25 02:46:45;;;;;;;19.42;3.58;;;;;;;2.52;100.00;68664.19;5089841;28;20035;-46
2024/03/25 02:49:13;;;;;;;19.60;3.75;;;;;;;2.51;100.00;68660.47;5089839;28;20040;-46
2024/03/25 02:51:39;;;;;;;24.35;4.47;;;;;;;2.52;100.00;68668.75;5089299;28;20090;-46
2024/03/25 02:54:06;;;;;;;25.27;5.32;;;;;;;2.48;100.00;68662.13;5089046;28;20040;-46
2024/03/25 02:56:34;;;;;;;16.38;4.00;;;;;;;2.49;100.00;68665.28;5089560;28;20056;-46
2024/03/25 02:59:01;;;;;;;19.42;4.15;;;;;;;2.45;100.00;68656.06;5089521;28;20048;-45
2024/03/25 03:01:29;;;;;;;20.45;5.20;;;;;;;2.46;100.00;68654.09;5089773;28;20036;-46
2024/03/25 03:03:56;;;;;;;18.33;3.72;;;;;;;2.44;100.00;68657.50;5089208;28;20560;-46
2024/03/25 03:06:22;;;;;;;18.23;4.10;;;;;;;2.46;100.00;68659.81;5072036;28;20234;-47
2024/03/25 03:08:49;;;;;;;18.95;4.70;;;;;;;2.46;100.00;68654.09;5088118;28;20100;-45
2024/03/25 03:11:15;;;;;;;20.08;3.47;;;;;;;2.46;100.00;68659.81;5072248;28;20059;-46
2024/03/25 03:13:42;;;;;;;17.77;3.85;;;;;;;2.48;100.00;68658.97;5089425;28;20044;-46
2024/03/25 03:16:08;;;;;;;24.38;3.92;;;;;;;2.50;100.00;68663.88;5089356;28;20059;-46
2024/03/25 03:18:37;;;;;;;23.52;4.45;;;;;;;2.50;100.00;68661.88;5092056;28;20040;-46
2024/03/25 03:21:03;;;;;;;23.75;4.43;;;;;;;2.51;100.00;68668.19;5090762;28;20044;-46
2024/03/25 03:23:30;;;;;;;15.38;3.70;;;;;;;2.51;100.00;68665.59;5071549;28;20056;-46
2024/03/25 03:25:57;;;;;;;18.48;4.70;;;;;;;2.52;100.00;68661.63;5088802;28;20047;-48
2024/03/25 03:28:24;;;;;;;15.93;3.55;;;;;;;2.54;100.00;68668.50;5089288;28;20470;-49
2024/03/25 03:30:50;;;;;;;19.85;4.68;;;;;;;2.51;100.00;68665.03;5088855;28;20046;-50
2024/03/25 03:33:17;;;;;;;20.50;4.88;;;;;;;2.48;100.00;68654.41;5071672;28;20407;-46
2024/03/25 03:35:45;;;;;;;21.33;4.38;;;;;;;2.48;100.00;68664.13;5087537;28;20101;-46
2024/03/25 03:38:12;;;;;;;17.75;4.10;;;;;;;2.45;100.00;68653.50;5087268;28;20181;-46
2024/03/25 03:40:38;;;;;;;20.52;4.47;;;;;;;2.44;100.00;68651.75;5087742;28;20048;-50
2024/03/25 03:43:05;;;;;;;17.70;4.30;;;;;;;2.40;100.00;68647.72;5074103;28;20579;-50
2024/03/25 03:45:33;;;;;;;14.15;3.70;;;;;;;2.38;100.00;68647.97;5091611;28;20079;-46
2024/03/25 03:48:00;;;;;;;16.02;3.70;;;;;;;2.34;100.00;68643.88;5090248;28;20044;-46
2024/03/25 03:50:27;;;;;;;19.33;4.47;;;;;;;2.33;100.00;68639.59;5088325;28;20044;-45
2024/03/25 03:52:55;;;;;;;19.35;4.30;;;;;;;2.33;100.00;68639.59;5087489;28;20087;-47
2024/03/25 03:55:21;;;;;;;20.67;5.07;;;;;;;2.29;100.00;68638.13;5090372;28;20352;-46
2024/03/25 03:57:49;;;;;;;17.02;4.13;;;;;;;2.27;100.00;68635.22;5074406;28;20463;-46
2024/03/25 04:00:16;;;;;;;19.58;5.35;;;;;;;2.23;100.00;68628.00;5088291;28;20085;-47
2024/03/25 04:02:44;;;;;;;19.65;4.72;;;;;;;2.23;100.00;68630.56;5088404;28;20044;-47
2024/03/25 04:05:10;;;;;;;23.77;5.18;;;;;;;2.19;100.00;68632.22;5089242;28;20040;-47
2024/03/25 04:07:38;;;;;;;20.73;4.28;;;;;;;2.18;100.00;68625.34;5091680;28;20376;-47
2024/03/25 04:10:07;;;;;;;22.15;4.32;;;;;;;2.14;100.00;68618.72;5088730;28;20048;-45
2024/03/25 04:12:35;;;;;;;18.52;4.47;;;;;;;2.12;100.00;68618.97;5088463;28;20530;-49
2024/03/25 04:15:01;;;;;;;18.38;4.22;;;;;;;2.08;100.00;68616.34;5090155;28;20036;-46
2024/03/25 04:17:28;;;;;;;22.80;5.05;;;;;;;2.05;100.00;68607.72;5088336;28;20048;-46
2024/03/25 04:19:54;;;;;;;17.80;5.05;;;;;;;2.01;100.00;68606.81;5089530;28;20046;-47
2024/03/25 04:22:21;;;;;;;19.23;4.47;;;;;;;1.98;100.00;68600.75;5087530;28;20516;-47
2024/03/25 04:24:47;;;;;;;19.98;4.88;;;;;;;1.95;100.00;68601.84;5087298;28;20035;-45
2024/03/25 04:27:16;;;;;;;17.42;4.55;;;;;;;1.92;100.00;68598.94;5087890;28;20425;-47
2024/03/25 04:29:42;;;;;;;17.88;4.22;;;;;;;1.90;100.00;68591.50;5071341;28;20429;-46
2024/03/25 04:32:09;;;;;;;15.57;4.13;;;;;;;1.85;100.00;68588.84;5087856;28;20052;-47
2024/03/25 04:34:35;;;;;;;26.42;6.57;;;;;;;1.85;100.00;68588.84;5071289;28;20062;-46
